sensor_id;sensor_type;location;lat;lon;timestamp;P1;durP1;ratioP1;P2;durP2;ratioP2
51746;SDS011;37825;40.088;18.302;2022-08-21T00:00:22;8.80;;;3.15;;
51746;SDS011;37825;40.088;18.302;2022-08-21T00:02:59;12.65;;;2.47;;
51746;SDS011;37825;40.088;18.302;2022-08-21T00:05:28;6.60;;;2.65;;
51746;SDS011;37825;40.088;18.302;2022-08-21T00:07:58;9.45;;;3.03;;
51746;SDS011;37825;40.088;18.302;2022-08-21T00:10:26;12.25;;;3.08;;
51746;SDS011;37825;40.088;18.302;2022-08-21T00:12:55;10.63;;;3.25;;
51746;SDS011;37825;40.088;18.302;2022-08-21T00:15:25;7.43;;;4.63;;
51746;SDS011;37825;40.088;18.302;2022-08-21T00:17:54;7.60;;;3.22;;
51746;SDS011;37825;40.088;18.302;2022-08-21T00:20:22;7.03;;;3.42;;
51746;SDS011;37825;40.088;18.302;2022-08-21T00:22:51;7.57;;;2.72;;
51746;SDS011;37825;40.088;18.302;2022-08-21T00:25:19;4.13;;;2.78;;
51746;SDS011;37825;40.088;18.302;2022-08-21T00:27:48;5.78;;;2.55;;
51746;SDS011;37825;40.088;18.302;2022-08-21T00:30:18;9.63;;;2.80;;
51746;SDS011;37825;40.088;18.302;2022-08-21T00:32:47;7.00;;;2.63;;
51746;SDS011;37825;40.088;18.302;2022-08-21T00:35:16;5.85;;;2.42;;
51746;SDS011;37825;40.088;18.302;2022-08-21T00:37:45;4.80;;;2.70;;
51746;SDS011;37825;40.088;18.302;2022-08-21T00:40:15;7.13;;;2.28;;
51746;SDS011;37825;40.088;18.302;2022-08-21T00:42:43;4.65;;;1.73;;
51746;SDS011;37825;40.088;18.302;2022-08-21T00:45:11;3.78;;;2.22;;
51746;SDS011;37825;40.088;18.302;2022-08-21T00:47:40;4.05;;;1.77;;
51746;SDS011;37825;40.088;18.302;2022-08-21T00:50:09;11.50;;;2.35;;
51746;SDS011;37825;40.088;18.302;2022-08-21T00:52:38;8.38;;;2.33;;
51746;SDS011;37825;40.088;18.302;2022-08-21T00:55:07;7.05;;;2.92;;
51746;SDS011;37825;40.088;18.302;2022-08-21T00:57:42;4.38;;;2.20;;
51746;SDS011;37825;40.088;18.302;2022-08-21T01:00:12;7.25;;;2.28;;
51746;SDS011;37825;40.088;18.302;2022-08-21T01:02:40;5.47;;;1.85;;
51746;SDS011;37825;40.088;18.302;2022-08-21T01:05:09;8.65;;;2.33;;
51746;SDS011;37825;40.088;18.302;2022-08-21T01:07:38;2.92;;;1.67;;
51746;SDS011;37825;40.088;18.302;2022-08-21T01:10:07;4.90;;;2.17;;
51746;SDS011;37825;40.088;18.302;2022-08-21T01:12:36;7.15;;;2.08;;
51746;SDS011;37825;40.088;18.302;2022-08-21T01:15:05;5.30;;;1.95;;
51746;SDS011;37825;40.088;18.302;2022-08-21T01:17:34;6.15;;;1.98;;
51746;SDS011;37825;40.088;18.302;2022-08-21T01:20:04;7.53;;;2.40;;
51746;SDS011;37825;40.088;18.302;2022-08-21T01:22:33;5.60;;;2.65;;
51746;SDS011;37825;40.088;18.302;2022-08-21T01:25:08;5.68;;;3.13;;
51746;SDS011;37825;40.088;18.302;2022-08-21T01:27:36;7.40;;;2.58;;
51746;SDS011;37825;40.088;18.302;2022-08-21T01:30:14;6.13;;;1.83;;
51746;SDS011;37825;40.088;18.302;2022-08-21T01:32:44;6.82;;;2.10;;
51746;SDS011;37825;40.088;18.302;2022-08-21T01:35:13;6.35;;;2.25;;
51746;SDS011;37825;40.088;18.302;2022-08-21T01:37:41;7.15;;;2.03;;
51746;SDS011;37825;40.088;18.302;2022-08-21T01:40:10;6.43;;;1.95;;
51746;SDS011;37825;40.088;18.302;2022-08-21T01:42:39;6.15;;;2.15;;
51746;SDS011;37825;40.088;18.302;2022-08-21T01:45:07;3.92;;;2.05;;
51746;SDS011;37825;40.088;18.302;2022-08-21T01:47:36;8.32;;;1.98;;
51746;SDS011;37825;40.088;18.302;2022-08-21T01:50:05;8.98;;;2.13;;
51746;SDS011;37825;40.088;18.302;2022-08-21T01:52:34;6.75;;;2.50;;
51746;SDS011;37825;40.088;18.302;2022-08-21T01:55:03;7.07;;;2.30;;
51746;SDS011;37825;40.088;18.302;2022-08-21T01:57:32;10.80;;;2.50;;
51746;SDS011;37825;40.088;18.302;2022-08-21T02:00:03;7.65;;;2.70;;
51746;SDS011;37825;40.088;18.302;2022-08-21T02:02:38;6.68;;;1.95;;
51746;SDS011;37825;40.088;18.302;2022-08-21T02:05:06;5.75;;;2.00;;
51746;SDS011;37825;40.088;18.302;2022-08-21T02:07:39;6.15;;;2.13;;
51746;SDS011;37825;40.088;18.302;2022-08-21T02:10:09;8.07;;;1.88;;
51746;SDS011;37825;40.088;18.302;2022-08-21T02:12:37;7.15;;;1.75;;
51746;SDS011;37825;40.088;18.302;2022-08-21T02:15:06;7.10;;;2.13;;
51746;SDS011;37825;40.088;18.302;2022-08-21T02:17:39;5.07;;;1.85;;
51746;SDS011;37825;40.088;18.302;2022-08-21T02:20:09;5.22;;;1.75;;
51746;SDS011;37825;40.088;18.302;2022-08-21T02:22:37;8.63;;;1.83;;
51746;SDS011;37825;40.088;18.302;2022-08-21T02:25:06;7.75;;;2.40;;
51746;SDS011;37825;40.088;18.302;2022-08-21T02:27:39;5.22;;;1.95;;
51746;SDS011;37825;40.088;18.302;2022-08-21T02:30:08;5.32;;;1.52;;
51746;SDS011;37825;40.088;18.302;2022-08-21T02:32:37;7.85;;;2.28;;
51746;SDS011;37825;40.088;18.302;2022-08-21T02:35:05;7.03;;;2.55;;
51746;SDS011;37825;40.088;18.302;2022-08-21T02:37:34;6.65;;;2.00;;
51746;SDS011;37825;40.088;18.302;2022-08-21T02:40:10;5.28;;;1.90;;
51746;SDS011;37825;40.088;18.302;2022-08-21T02:42:39;7.18;;;2.30;;
51746;SDS011;37825;40.088;18.302;2022-08-21T02:45:08;7.65;;;2.15;;
51746;SDS011;37825;40.088;18.302;2022-08-21T02:47:36;3.60;;;1.90;;
51746;SDS011;37825;40.088;18.302;2022-08-21T02:50:05;5.97;;;1.98;;
51746;SDS011;37825;40.088;18.302;2022-08-21T02:52:34;6.47;;;2.40;;
51746;SDS011;37825;40.088;18.302;2022-08-21T02:55:02;6.32;;;2.15;;
51746;SDS011;37825;40.088;18.302;2022-08-21T02:57:30;6.57;;;2.13;;
51746;SDS011;37825;40.088;18.302;2022-08-21T02:59:59;9.45;;;2.50;;
51746;SDS011;37825;40.088;18.302;2022-08-21T03:02:28;5.35;;;3.00;;
51746;SDS011;37825;40.088;18.302;2022-08-21T03:04:56;8.07;;;2.72;;
51746;SDS011;37825;40.088;18.302;2022-08-21T03:07:25;7.90;;;2.67;;
51746;SDS011;37825;40.088;18.302;2022-08-21T03:09:54;8.18;;;3.15;;
51746;SDS011;37825;40.088;18.302;2022-08-21T03:12:23;8.35;;;2.92;;
51746;SDS011;37825;40.088;18.302;2022-08-21T03:14:51;5.95;;;2.55;;
51746;SDS011;37825;40.088;18.302;2022-08-21T03:17:20;7.38;;;2.92;;
51746;SDS011;37825;40.088;18.302;2022-08-21T03:19:48;4.63;;;2.35;;
51746;SDS011;37825;40.088;18.302;2022-08-21T03:22:16;4.97;;;2.08;;
51746;SDS011;37825;40.088;18.302;2022-08-21T03:24:44;7.18;;;2.40;;
51746;SDS011;37825;40.088;18.302;2022-08-21T03:27:12;7.78;;;2.40;;
51746;SDS011;37825;40.088;18.302;2022-08-21T03:29:42;9.73;;;2.78;;
51746;SDS011;37825;40.088;18.302;2022-08-21T03:32:11;7.55;;;2.67;;
51746;SDS011;37825;40.088;18.302;2022-08-21T03:34:39;5.78;;;2.67;;
51746;SDS011;37825;40.088;18.302;2022-08-21T03:37:08;6.43;;;3.05;;
51746;SDS011;37825;40.088;18.302;2022-08-21T03:39:36;3.80;;;2.22;;
51746;SDS011;37825;40.088;18.302;2022-08-21T03:42:05;6.57;;;3.05;;
51746;SDS011;37825;40.088;18.302;2022-08-21T03:44:34;7.45;;;2.67;;
51746;SDS011;37825;40.088;18.302;2022-08-21T03:47:03;7.60;;;3.20;;
51746;SDS011;37825;40.088;18.302;2022-08-21T03:49:31;8.35;;;3.15;;
51746;SDS011;37825;40.088;18.302;2022-08-21T03:52:00;5.60;;;2.85;;
51746;SDS011;37825;40.088;18.302;2022-08-21T03:54:28;6.28;;;2.70;;
51746;SDS011;37825;40.088;18.302;2022-08-21T03:56:57;7.45;;;2.75;;
51746;SDS011;37825;40.088;18.302;2022-08-21T03:59:25;5.20;;;2.50;;
51746;SDS011;37825;40.088;18.302;2022-08-21T04:01:57;8.13;;;2.60;;
51746;SDS011;37825;40.088;18.302;2022-08-21T04:04:26;7.25;;;2.35;;
51746;SDS011;37825;40.088;18.302;2022-08-21T04:06:55;8.43;;;2.80;;
51746;SDS011;37825;40.088;18.302;2022-08-21T04:09:25;5.07;;;2.35;;
51746;SDS011;37825;40.088;18.302;2022-08-21T04:11:53;7.82;;;2.75;;
51746;SDS011;37825;40.088;18.302;2022-08-21T04:14:22;6.65;;;2.47;;
51746;SDS011;37825;40.088;18.302;2022-08-21T04:16:50;4.22;;;2.67;;
51746;SDS011;37825;40.088;18.302;2022-08-21T04:19:19;8.50;;;2.63;;
51746;SDS011;37825;40.088;18.302;2022-08-21T04:21:47;3.88;;;2.00;;
51746;SDS011;37825;40.088;18.302;2022-08-21T04:24:17;5.97;;;2.58;;
51746;SDS011;37825;40.088;18.302;2022-08-21T04:26:46;5.47;;;2.08;;
51746;SDS011;37825;40.088;18.302;2022-08-21T04:29:14;4.43;;;2.20;;
51746;SDS011;37825;40.088;18.302;2022-08-21T04:31:42;7.90;;;1.83;;
51746;SDS011;37825;40.088;18.302;2022-08-21T04:34:11;4.05;;;2.30;;
51746;SDS011;37825;40.088;18.302;2022-08-21T04:36:40;4.90;;;2.28;;
51746;SDS011;37825;40.088;18.302;2022-08-21T04:39:08;5.85;;;1.88;;
51746;SDS011;37825;40.088;18.302;2022-08-21T04:41:37;7.25;;;2.60;;
51746;SDS011;37825;40.088;18.302;2022-08-21T04:44:05;5.82;;;2.40;;
51746;SDS011;37825;40.088;18.302;2022-08-21T04:46:34;3.35;;;2.20;;
51746;SDS011;37825;40.088;18.302;2022-08-21T04:49:02;6.47;;;2.80;;
51746;SDS011;37825;40.088;18.302;2022-08-21T04:51:32;3.58;;;1.90;;
51746;SDS011;37825;40.088;18.302;2022-08-21T04:54:13;7.05;;;2.83;;
51746;SDS011;37825;40.088;18.302;2022-08-21T04:56:44;9.35;;;2.47;;
51746;SDS011;37825;40.088;18.302;2022-08-21T04:59:20;6.28;;;2.72;;
51746;SDS011;37825;40.088;18.302;2022-08-21T05:01:49;10.15;;;2.58;;
51746;SDS011;37825;40.088;18.302;2022-08-21T05:04:20;7.78;;;2.78;;
51746;SDS011;37825;40.088;18.302;2022-08-21T05:09:17;6.72;;;1.95;;
51746;SDS011;37825;40.088;18.302;2022-08-21T05:11:46;9.50;;;2.53;;
51746;SDS011;37825;40.088;18.302;2022-08-21T05:14:15;3.40;;;1.70;;
51746;SDS011;37825;40.088;18.302;2022-08-21T05:16:44;5.28;;;2.05;;
51746;SDS011;37825;40.088;18.302;2022-08-21T05:19:13;5.30;;;2.65;;
51746;SDS011;37825;40.088;18.302;2022-08-21T05:21:42;10.25;;;1.95;;
51746;SDS011;37825;40.088;18.302;2022-08-21T05:24:11;4.10;;;2.22;;
51746;SDS011;37825;40.088;18.302;2022-08-21T05:26:39;6.10;;;1.98;;
51746;SDS011;37825;40.088;18.302;2022-08-21T05:29:08;3.75;;;2.10;;
51746;SDS011;37825;40.088;18.302;2022-08-21T05:31:38;4.85;;;1.90;;
51746;SDS011;37825;40.088;18.302;2022-08-21T05:34:07;4.30;;;1.58;;
51746;SDS011;37825;40.088;18.302;2022-08-21T05:36:35;2.75;;;1.35;;
51746;SDS011;37825;40.088;18.302;2022-08-21T05:39:03;4.60;;;1.60;;
51746;SDS011;37825;40.088;18.302;2022-08-21T05:41:32;3.60;;;1.63;;
51746;SDS011;37825;40.088;18.302;2022-08-21T05:44:00;3.47;;;1.85;;
51746;SDS011;37825;40.088;18.302;2022-08-21T05:46:28;5.53;;;1.77;;
51746;SDS011;37825;40.088;18.302;2022-08-21T05:48:56;6.07;;;2.20;;
51746;SDS011;37825;40.088;18.302;2022-08-21T05:51:25;3.83;;;2.00;;
51746;SDS011;37825;40.088;18.302;2022-08-21T05:53:54;3.42;;;1.55;;
51746;SDS011;37825;40.088;18.302;2022-08-21T05:56:22;5.53;;;2.45;;
51746;SDS011;37825;40.088;18.302;2022-08-21T05:58:50;4.68;;;1.83;;
51746;SDS011;37825;40.088;18.302;2022-08-21T06:01:18;5.32;;;2.00;;
51746;SDS011;37825;40.088;18.302;2022-08-21T06:03:47;3.60;;;2.00;;
51746;SDS011;37825;40.088;18.302;2022-08-21T06:06:15;3.42;;;1.80;;
51746;SDS011;37825;40.088;18.302;2022-08-21T06:08:44;4.75;;;1.60;;
51746;SDS011;37825;40.088;18.302;2022-08-21T06:11:12;4.43;;;1.98;;
51746;SDS011;37825;40.088;18.302;2022-08-21T06:13:40;3.75;;;1.73;;
51746;SDS011;37825;40.088;18.302;2022-08-21T06:16:10;3.35;;;2.03;;
51746;SDS011;37825;40.088;18.302;2022-08-21T06:18:39;3.55;;;1.88;;
51746;SDS011;37825;40.088;18.302;2022-08-21T06:21:08;3.95;;;2.03;;
51746;SDS011;37825;40.088;18.302;2022-08-21T06:23:38;4.53;;;1.90;;
51746;SDS011;37825;40.088;18.302;2022-08-21T06:26:07;4.63;;;1.67;;
51746;SDS011;37825;40.088;18.302;2022-08-21T06:28:36;3.53;;;1.70;;
51746;SDS011;37825;40.088;18.302;2022-08-21T06:31:11;4.38;;;1.48;;
51746;SDS011;37825;40.088;18.302;2022-08-21T06:33:40;7.13;;;2.17;;
51746;SDS011;37825;40.088;18.302;2022-08-21T06:36:09;4.03;;;1.70;;
51746;SDS011;37825;40.088;18.302;2022-08-21T06:38:38;6.70;;;2.75;;
51746;SDS011;37825;40.088;18.302;2022-08-21T06:41:06;5.35;;;2.40;;
51746;SDS011;37825;40.088;18.302;2022-08-21T06:43:34;5.15;;;1.95;;
51746;SDS011;37825;40.088;18.302;2022-08-21T06:46:02;8.30;;;2.28;;
51746;SDS011;37825;40.088;18.302;2022-08-21T06:48:31;7.53;;;2.20;;
51746;SDS011;37825;40.088;18.302;2022-08-21T06:51:01;7.70;;;2.22;;
51746;SDS011;37825;40.088;18.302;2022-08-21T06:53:29;5.88;;;1.98;;
51746;SDS011;37825;40.088;18.302;2022-08-21T06:55:57;7.10;;;2.95;;
51746;SDS011;37825;40.088;18.302;2022-08-21T06:58:25;6.72;;;2.20;;
51746;SDS011;37825;40.088;18.302;2022-08-21T07:00:54;7.05;;;2.30;;
51746;SDS011;37825;40.088;18.302;2022-08-21T07:03:26;6.35;;;2.25;;
51746;SDS011;37825;40.088;18.302;2022-08-21T07:05:55;6.68;;;2.75;;
51746;SDS011;37825;40.088;18.302;2022-08-21T07:08:25;6.22;;;1.63;;
51746;SDS011;37825;40.088;18.302;2022-08-21T07:10:55;6.50;;;1.95;;
51746;SDS011;37825;40.088;18.302;2022-08-21T07:13:24;6.40;;;2.13;;
51746;SDS011;37825;40.088;18.302;2022-08-21T07:15:53;8.27;;;2.70;;
51746;SDS011;37825;40.088;18.302;2022-08-21T07:18:21;4.45;;;1.83;;
51746;SDS011;37825;40.088;18.302;2022-08-21T07:20:49;4.53;;;1.40;;
51746;SDS011;37825;40.088;18.302;2022-08-21T07:23:24;7.18;;;2.40;;
51746;SDS011;37825;40.088;18.302;2022-08-21T07:25:54;4.35;;;1.88;;
51746;SDS011;37825;40.088;18.302;2022-08-21T07:28:23;2.92;;;1.77;;
51746;SDS011;37825;40.088;18.302;2022-08-21T07:30:52;10.90;;;2.42;;
51746;SDS011;37825;40.088;18.302;2022-08-21T07:33:21;5.55;;;1.45;;
51746;SDS011;37825;40.088;18.302;2022-08-21T07:35:50;5.15;;;2.00;;
51746;SDS011;37825;40.088;18.302;2022-08-21T07:38:18;6.68;;;1.98;;
51746;SDS011;37825;40.088;18.302;2022-08-21T07:40:47;7.03;;;2.33;;
51746;SDS011;37825;40.088;18.302;2022-08-21T07:43:16;7.00;;;2.13;;
51746;SDS011;37825;40.088;18.302;2022-08-21T07:45:45;7.47;;;1.88;;
51746;SDS011;37825;40.088;18.302;2022-08-21T07:48:14;8.57;;;1.67;;
51746;SDS011;37825;40.088;18.302;2022-08-21T07:50:43;6.78;;;1.75;;
51746;SDS011;37825;40.088;18.302;2022-08-21T07:53:11;8.20;;;1.88;;
51746;SDS011;37825;40.088;18.302;2022-08-21T07:55:40;4.25;;;1.50;;
51746;SDS011;37825;40.088;18.302;2022-08-21T07:58:09;6.70;;;2.17;;
51746;SDS011;37825;40.088;18.302;2022-08-21T08:00:37;7.43;;;1.88;;
51746;SDS011;37825;40.088;18.302;2022-08-21T08:03:05;5.78;;;1.88;;
51746;SDS011;37825;40.088;18.302;2022-08-21T08:05:34;5.53;;;1.92;;
51746;SDS011;37825;40.088;18.302;2022-08-21T08:08:04;5.35;;;1.77;;
51746;SDS011;37825;40.088;18.302;2022-08-21T08:10:32;4.75;;;2.33;;
51746;SDS011;37825;40.088;18.302;2022-08-21T08:13:00;3.80;;;1.10;;
51746;SDS011;37825;40.088;18.302;2022-08-21T08:15:29;7.97;;;2.47;;
51746;SDS011;37825;40.088;18.302;2022-08-21T08:18:00;6.88;;;1.80;;
51746;SDS011;37825;40.088;18.302;2022-08-21T08:20:29;5.97;;;2.28;;
51746;SDS011;37825;40.088;18.302;2022-08-21T08:22:57;4.25;;;2.10;;
51746;SDS011;37825;40.088;18.302;2022-08-21T08:25:25;8.02;;;1.83;;
51746;SDS011;37825;40.088;18.302;2022-08-21T08:27:54;6.50;;;1.70;;
51746;SDS011;37825;40.088;18.302;2022-08-21T08:30:22;8.85;;;2.03;;
51746;SDS011;37825;40.088;18.302;2022-08-21T08:32:51;5.93;;;1.70;;
51746;SDS011;37825;40.088;18.302;2022-08-21T08:35:20;6.60;;;1.73;;
51746;SDS011;37825;40.088;18.302;2022-08-21T08:37:49;4.25;;;1.30;;
51746;SDS011;37825;40.088;18.302;2022-08-21T08:40:22;5.85;;;1.38;;
51746;SDS011;37825;40.088;18.302;2022-08-21T08:42:53;6.75;;;1.63;;
51746;SDS011;37825;40.088;18.302;2022-08-21T08:45:22;9.90;;;2.15;;
51746;SDS011;37825;40.088;18.302;2022-08-21T08:47:53;4.97;;;1.13;;
51746;SDS011;37825;40.088;18.302;2022-08-21T08:53:23;3.63;;;1.23;;
51746;SDS011;37825;40.088;18.302;2022-08-21T08:55:54;6.97;;;1.55;;
51746;SDS011;37825;40.088;18.302;2022-08-21T08:58:24;6.15;;;1.38;;
51746;SDS011;37825;40.088;18.302;2022-08-21T09:00:53;6.65;;;1.65;;
51746;SDS011;37825;40.088;18.302;2022-08-21T09:03:25;3.58;;;1.15;;
51746;SDS011;37825;40.088;18.302;2022-08-21T09:06:18;8.20;;;2.13;;
51746;SDS011;37825;40.088;18.302;2022-08-21T09:08:50;5.10;;;1.38;;
51746;SDS011;37825;40.088;18.302;2022-08-21T09:11:56;6.57;;;1.45;;
51746;SDS011;37825;40.088;18.302;2022-08-21T09:17:04;6.38;;;1.40;;
51746;SDS011;37825;40.088;18.302;2022-08-21T09:27:41;6.47;;;1.85;;
51746;SDS011;37825;40.088;18.302;2022-08-21T09:30:10;8.35;;;2.72;;
51746;SDS011;37825;40.088;18.302;2022-08-21T09:32:39;5.00;;;1.50;;
51746;SDS011;37825;40.088;18.302;2022-08-21T09:35:19;9.25;;;2.33;;
51746;SDS011;37825;40.088;18.302;2022-08-21T09:37:49;10.48;;;2.30;;
51746;SDS011;37825;40.088;18.302;2022-08-21T09:45:35;4.55;;;1.35;;
51746;SDS011;37825;40.088;18.302;2022-08-21T09:48:14;11.90;;;2.17;;
51746;SDS011;37825;40.088;18.302;2022-08-21T09:50:43;7.50;;;1.90;;
51746;SDS011;37825;40.088;18.302;2022-08-21T09:53:17;8.63;;;2.07;;
51746;SDS011;37825;40.088;18.302;2022-08-21T09:55:56;4.72;;;1.70;;
51746;SDS011;37825;40.088;18.302;2022-08-21T09:58:45;8.23;;;1.10;;
51746;SDS011;37825;40.088;18.302;2022-08-21T10:01:19;8.60;;;2.15;;
51746;SDS011;37825;40.088;18.302;2022-08-21T10:03:48;5.80;;;1.63;;
51746;SDS011;37825;40.088;18.302;2022-08-21T10:06:25;6.28;;;2.10;;
51746;SDS011;37825;40.088;18.302;2022-08-21T10:09:08;5.03;;;1.80;;
51746;SDS011;37825;40.088;18.302;2022-08-21T10:11:40;8.75;;;1.70;;
51746;SDS011;37825;40.088;18.302;2022-08-21T10:21:48;7.28;;;2.28;;
51746;SDS011;37825;40.088;18.302;2022-08-21T10:24:29;5.03;;;1.17;;
51746;SDS011;37825;40.088;18.302;2022-08-21T10:27:11;5.05;;;1.65;;
51746;SDS011;37825;40.088;18.302;2022-08-21T10:34:57;5.63;;;1.58;;
51746;SDS011;37825;40.088;18.302;2022-08-21T10:40:07;5.88;;;1.75;;
51746;SDS011;37825;40.088;18.302;2022-08-21T10:42:55;5.45;;;1.50;;
51746;SDS011;37825;40.088;18.302;2022-08-21T10:45:41;7.82;;;1.27;;
51746;SDS011;37825;40.088;18.302;2022-08-21T10:48:16;5.93;;;1.63;;
51746;SDS011;37825;40.088;18.302;2022-08-21T10:50:50;4.38;;;1.05;;
51746;SDS011;37825;40.088;18.302;2022-08-21T10:56:01;8.10;;;1.38;;
51746;SDS011;37825;40.088;18.302;2022-08-21T10:58:56;7.35;;;1.52;;
51746;SDS011;37825;40.088;18.302;2022-08-21T11:01:25;2.80;;;0.50;;
51746;SDS011;37825;40.088;18.302;2022-08-21T11:04:20;3.35;;;1.10;;
51746;SDS011;37825;40.088;18.302;2022-08-21T11:07:15;7.80;;;2.28;;
51746;SDS011;37825;40.088;18.302;2022-08-21T11:09:45;4.80;;;1.27;;
51746;SDS011;37825;40.088;18.302;2022-08-21T11:12:35;6.07;;;1.15;;
51746;SDS011;37825;40.088;18.302;2022-08-21T11:15:28;8.88;;;1.90;;
51746;SDS011;37825;40.088;18.302;2022-08-21T11:20:40;9.27;;;1.50;;
51746;SDS011;37825;40.088;18.302;2022-08-21T11:23:15;4.18;;;1.55;;
51746;SDS011;37825;40.088;18.302;2022-08-21T11:25:53;6.35;;;1.23;;
51746;SDS011;37825;40.088;18.302;2022-08-21T11:28:28;5.80;;;1.10;;
51746;SDS011;37825;40.088;18.302;2022-08-21T11:38:39;2.42;;;0.90;;
51746;SDS011;37825;40.088;18.302;2022-08-21T11:51:48;4.15;;;1.23;;
51746;SDS011;37825;40.088;18.302;2022-08-21T11:56:52;2.75;;;1.00;;
51746;SDS011;37825;40.088;18.302;2022-08-21T11:59:23;3.85;;;0.93;;
51746;SDS011;37825;40.088;18.302;2022-08-21T12:01:54;7.80;;;1.13;;
51746;SDS011;37825;40.088;18.302;2022-08-21T12:06:50;3.00;;;0.52;;
51746;SDS011;37825;40.088;18.302;2022-08-21T12:14:41;2.95;;;0.88;;
51746;SDS011;37825;40.088;18.302;2022-08-21T12:17:17;5.30;;;0.80;;
51746;SDS011;37825;40.088;18.302;2022-08-21T12:19:57;4.53;;;0.80;;
51746;SDS011;37825;40.088;18.302;2022-08-21T12:22:35;4.57;;;1.10;;
51746;SDS011;37825;40.088;18.302;2022-08-21T12:25:07;3.58;;;1.00;;
51746;SDS011;37825;40.088;18.302;2022-08-21T12:27:47;7.90;;;1.20;;
51746;SDS011;37825;40.088;18.302;2022-08-21T12:30:32;6.47;;;0.90;;
51746;SDS011;37825;40.088;18.302;2022-08-21T12:33:05;4.07;;;1.40;;
51746;SDS011;37825;40.088;18.302;2022-08-21T12:35:38;4.95;;;1.30;;
51746;SDS011;37825;40.088;18.302;2022-08-21T12:38:20;3.20;;;1.17;;
51746;SDS011;37825;40.088;18.302;2022-08-21T12:41:06;6.43;;;1.58;;
51746;SDS011;37825;40.088;18.302;2022-08-21T12:43:36;2.45;;;0.63;;
51746;SDS011;37825;40.088;18.302;2022-08-21T12:46:06;3.75;;;0.90;;
51746;SDS011;37825;40.088;18.302;2022-08-21T12:48:38;5.13;;;0.90;;
51746;SDS011;37825;40.088;18.302;2022-08-21T12:51:12;6.45;;;0.70;;
51746;SDS011;37825;40.088;18.302;2022-08-21T12:56:16;3.38;;;0.90;;
51746;SDS011;37825;40.088;18.302;2022-08-21T12:58:50;4.65;;;1.25;;
51746;SDS011;37825;40.088;18.302;2022-08-21T13:03:47;2.88;;;0.95;;
51746;SDS011;37825;40.088;18.302;2022-08-21T13:06:17;2.17;;;0.90;;
51746;SDS011;37825;40.088;18.302;2022-08-21T13:08:48;5.30;;;0.85;;
51746;SDS011;37825;40.088;18.302;2022-08-21T13:11:18;5.35;;;1.42;;
51746;SDS011;37825;40.088;18.302;2022-08-21T13:13:50;3.67;;;0.60;;
51746;SDS011;37825;40.088;18.302;2022-08-21T13:16:26;2.15;;;0.60;;
51746;SDS011;37825;40.088;18.302;2022-08-21T13:21:27;2.92;;;0.70;;
51746;SDS011;37825;40.088;18.302;2022-08-21T13:24:13;4.22;;;1.10;;
51746;SDS011;37825;40.088;18.302;2022-08-21T13:26:58;2.25;;;0.82;;
51746;SDS011;37825;40.088;18.302;2022-08-21T13:29:32;2.22;;;0.50;;
51746;SDS011;37825;40.088;18.302;2022-08-21T13:32:05;3.22;;;0.73;;
51746;SDS011;37825;40.088;18.302;2022-08-21T13:34:34;3.72;;;0.95;;
51746;SDS011;37825;40.088;18.302;2022-08-21T13:37:05;2.15;;;0.82;;
51746;SDS011;37825;40.088;18.302;2022-08-21T13:39:34;3.13;;;0.82;;
51746;SDS011;37825;40.088;18.302;2022-08-21T13:42:03;2.80;;;0.70;;
51746;SDS011;37825;40.088;18.302;2022-08-21T13:44:40;2.30;;;0.70;;
51746;SDS011;37825;40.088;18.302;2022-08-21T13:47:10;4.20;;;0.80;;
51746;SDS011;37825;40.088;18.302;2022-08-21T13:49:42;4.13;;;1.73;;
51746;SDS011;37825;40.088;18.302;2022-08-21T13:54:56;1.55;;;0.50;;
51746;SDS011;37825;40.088;18.302;2022-08-21T14:00:09;4.05;;;0.95;;
51746;SDS011;37825;40.088;18.302;2022-08-21T14:02:39;2.88;;;0.88;;
51746;SDS011;37825;40.088;18.302;2022-08-21T14:05:14;3.80;;;1.08;;
51746;SDS011;37825;40.088;18.302;2022-08-21T14:07:44;4.53;;;1.17;;
51746;SDS011;37825;40.088;18.302;2022-08-21T14:10:18;5.38;;;1.27;;
51746;SDS011;37825;40.088;18.302;2022-08-21T14:12:49;3.83;;;0.73;;
51746;SDS011;37825;40.088;18.302;2022-08-21T14:15:22;5.80;;;0.90;;
51746;SDS011;37825;40.088;18.302;2022-08-21T14:17:52;4.50;;;0.77;;
51746;SDS011;37825;40.088;18.302;2022-08-21T14:20:31;1.92;;;0.52;;
51746;SDS011;37825;40.088;18.302;2022-08-21T14:23:00;2.77;;;0.57;;
51746;SDS011;37825;40.088;18.302;2022-08-21T14:25:42;2.75;;;1.08;;
51746;SDS011;37825;40.088;18.302;2022-08-21T14:28:15;5.63;;;1.08;;
51746;SDS011;37825;40.088;18.302;2022-08-21T14:30:47;1.23;;;0.28;;
51746;SDS011;37825;40.088;18.302;2022-08-21T14:33:26;3.78;;;0.73;;
51746;SDS011;37825;40.088;18.302;2022-08-21T14:35:55;2.28;;;0.45;;
51746;SDS011;37825;40.088;18.302;2022-08-21T14:38:25;2.60;;;0.68;;
51746;SDS011;37825;40.088;18.302;2022-08-21T14:40:54;1.70;;;0.35;;
51746;SDS011;37825;40.088;18.302;2022-08-21T14:43:24;2.33;;;0.47;;
51746;SDS011;37825;40.088;18.302;2022-08-21T14:45:53;2.28;;;0.70;;
51746;SDS011;37825;40.088;18.302;2022-08-21T14:48:22;3.05;;;0.80;;
51746;SDS011;37825;40.088;18.302;2022-08-21T14:50:51;4.93;;;0.50;;
51746;SDS011;37825;40.088;18.302;2022-08-21T14:53:21;6.10;;;1.60;;
51746;SDS011;37825;40.088;18.302;2022-08-21T14:55:50;6.85;;;1.33;;
51746;SDS011;37825;40.088;18.302;2022-08-21T14:58:40;3.28;;;0.85;;
51746;SDS011;37825;40.088;18.302;2022-08-21T15:01:10;2.40;;;0.85;;
51746;SDS011;37825;40.088;18.302;2022-08-21T15:03:39;4.38;;;0.77;;
51746;SDS011;37825;40.088;18.302;2022-08-21T15:06:08;3.50;;;1.02;;
51746;SDS011;37825;40.088;18.302;2022-08-21T15:08:36;4.30;;;0.65;;
51746;SDS011;37825;40.088;18.302;2022-08-21T15:11:05;5.50;;;0.93;;
51746;SDS011;37825;40.088;18.302;2022-08-21T15:13:37;2.50;;;0.95;;
51746;SDS011;37825;40.088;18.302;2022-08-21T15:16:06;2.97;;;0.60;;
51746;SDS011;37825;40.088;18.302;2022-08-21T15:21:04;3.22;;;0.70;;
51746;SDS011;37825;40.088;18.302;2022-08-21T15:23:33;3.35;;;0.82;;
51746;SDS011;37825;40.088;18.302;2022-08-21T15:26:01;2.38;;;0.50;;
51746;SDS011;37825;40.088;18.302;2022-08-21T15:28:30;2.35;;;0.43;;
51746;SDS011;37825;40.088;18.302;2022-08-21T15:30:59;1.40;;;0.40;;
51746;SDS011;37825;40.088;18.302;2022-08-21T15:33:28;3.35;;;0.63;;
51746;SDS011;37825;40.088;18.302;2022-08-21T15:35:58;2.40;;;0.47;;
51746;SDS011;37825;40.088;18.302;2022-08-21T15:38:26;3.22;;;0.35;;
51746;SDS011;37825;40.088;18.302;2022-08-21T15:40:54;1.38;;;0.38;;
51746;SDS011;37825;40.088;18.302;2022-08-21T15:43:30;2.08;;;0.50;;
51746;SDS011;37825;40.088;18.302;2022-08-21T15:45:59;1.48;;;0.30;;
51746;SDS011;37825;40.088;18.302;2022-08-21T15:48:28;3.38;;;0.40;;
51746;SDS011;37825;40.088;18.302;2022-08-21T15:50:57;2.88;;;0.85;;
51746;SDS011;37825;40.088;18.302;2022-08-21T15:53:25;2.85;;;0.40;;
51746;SDS011;37825;40.088;18.302;2022-08-21T15:55:54;1.15;;;0.30;;
51746;SDS011;37825;40.088;18.302;2022-08-21T15:58:23;3.47;;;0.82;;
51746;SDS011;37825;40.088;18.302;2022-08-21T16:00:51;1.27;;;0.30;;
51746;SDS011;37825;40.088;18.302;2022-08-21T16:03:19;4.25;;;0.82;;
51746;SDS011;37825;40.088;18.302;2022-08-21T16:05:48;1.02;;;0.40;;
51746;SDS011;37825;40.088;18.302;2022-08-21T16:10:47;2.50;;;0.50;;
51746;SDS011;37825;40.088;18.302;2022-08-21T16:13:18;4.82;;;0.93;;
51746;SDS011;37825;40.088;18.302;2022-08-21T16:15:49;3.88;;;0.80;;
51746;SDS011;37825;40.088;18.302;2022-08-21T16:18:18;2.83;;;1.38;;
51746;SDS011;37825;40.088;18.302;2022-08-21T16:20:47;3.95;;;0.60;;
51746;SDS011;37825;40.088;18.302;2022-08-21T16:23:15;3.60;;;1.10;;